Geraldton, Australia
Current Conditions -  °F | °C
As of 8:30 PM on Wednesday 26 Nov 2014 (Local Time) from YGEL Reporting Station
Broken Clouds Broken Clouds  
Wind Chill: 75°   Ceiling: 9200
Heat Index: 75°   Visibility: 6mi
Dew Point: 63°   Wind: 9mph
Humidity: 65%   Direction: 350°N
Pressure: 29.83"   Gusts: NA
Location:  28.77°S, 114.61°E
Report Text: YGEL 261230Z AUTO 35008KT 9999 // BKN092 BKN110 24/17 Q1010
Loading
Personal Weather Stations






























Interactive Weather Map New forecast layout! Learn more

10-Day Weather Forecast

Advertisements
Track Severe Weather on mobile